Time;durP1;ratioP1;P1;durP2;ratioP2;P2;SDS_P1;SDS_P2;PMS_P1;PMS_P2;Temp;Humidity;BMP_temperature;BMP_pressure;BME280_temperature;BME280_humidity;BME280_pressure;Samples;Min_cycle;Max_cycle;Signal;HPM_P1;HPM_P2
2023/06/27 00:00:45;;;;;;;;;;;;;;;20.60;44.86;101452.25;5161702;28;19910;-87
2023/06/27 00:03:36;;;;;;;;;;;;;;;20.57;44.77;101447.09;5144370;28;19921;-88
2023/06/27 00:06:27;;;;;;;;;;;;;;;20.50;45.62;101446.56;5173661;28;19920;-87
2023/06/27 00:09:18;;;;;;;;;;;;;;;20.47;44.88;101451.22;5160989;28;19921;-88
2023/06/27 00:12:08;;;;;;;;;;;;;;;20.43;45.50;101453.19;5136889;28;19918;-88
2023/06/27 00:14:59;;;;;;;;;;;;;;;20.39;45.25;101454.34;5140111;28;19914;-88
2023/06/27 00:17:53;;;;;;;;;;;;;;;20.37;45.54;101449.06;5159306;28;19949;-88
2023/06/27 00:20:44;;;;;;;;;;;;;;;20.32;46.08;101453.81;5148929;28;19916;-88
2023/06/27 00:23:35;;;;;;;;;;;;;;;20.31;45.90;101453.91;5159497;28;19930;-88
2023/06/27 00:26:27;;;;;;;;;;;;;;;20.32;45.74;101451.16;5160242;28;19910;-88
2023/06/27 00:29:17;;;;;;;;;;;;;;;20.27;45.78;101448.75;5160700;28;19928;-87
2023/06/27 00:32:08;;;;;;;;;;;;;;;20.21;46.30;101453.56;5151728;28;19913;-87
2023/06/27 00:34:59;;;;;;;;;;;;;;;20.22;45.93;101452.59;5160351;28;19947;-88
2023/06/27 00:37:49;;;;;;;;;;;;;;;20.20;46.52;101447.38;5164157;28;19925;-87
2023/06/27 00:40:40;;;;;;;;;;;;;;;20.22;46.42;101456.16;5165226;28;19996;-87
2023/06/27 00:43:31;;;;;;;;;;;;;;;20.19;46.04;101448.31;5149008;28;19925;-89
2023/06/27 00:46:31;;;;;;;;;;;;;;;20.12;46.42;101452.28;5163798;28;19921;-88
2023/06/27 00:49:22;;;;;;;;;;;;;;;20.10;46.93;101452.38;5158486;28;19969;-87
2023/06/27 00:52:13;;;;;;;;;;;;;;;20.16;47.67;101451.19;5162593;28;19918;-88
2023/06/27 00:55:04;;;;;;;;;;;;;;;20.14;47.09;101461.06;5151311;28;19968;-88
2023/06/27 00:57:54;;;;;;;;;;;;;;;20.08;47.00;101451.59;5180383;28;19960;-88
2023/06/27 01:00:47;;;;;;;;;;;;;;;20.03;46.79;101451.00;5159990;28;20370;-87
2023/06/27 01:03:38;;;;;;;;;;;;;;;20.02;46.90;101454.59;5162839;28;20181;-88
2023/06/27 01:06:49;;;;;;;;;;;;;;;20.06;48.03;101458.81;5146538;28;19917;-87
2023/06/27 01:09:47;;;;;;;;;;;;;;;20.00;47.68;101453.81;5163398;28;19948;-88
2023/06/27 01:12:38;;;;;;;;;;;;;;;19.96;47.44;101455.78;5135332;28;19949;-87
2023/06/27 01:15:29;;;;;;;;;;;;;;;19.97;47.26;101454.84;5162027;28;19913;-86
2023/06/27 01:18:20;;;;;;;;;;;;;;;19.99;47.52;101440.59;5165087;28;20375;-88
2023/06/27 01:21:12;;;;;;;;;;;;;;;19.97;47.29;101452.19;5162994;28;20365;-87
2023/06/27 01:24:06;;;;;;;;;;;;;;;19.97;47.62;101456.63;5162269;28;19922;-87
2023/06/27 01:26:57;;;;;;;;;;;;;;;19.92;47.50;101456.03;5163108;28;19928;-87
2023/06/27 01:29:48;;;;;;;;;;;;;;;19.93;47.68;101450.63;5148478;28;19985;-87
2023/06/27 01:32:48;;;;;;;;;;;;;;;19.92;47.75;101454.22;5149127;28;19924;-87
2023/06/27 01:35:43;;;;;;;;;;;;;;;19.89;47.91;101451.75;5164154;28;20445;-87
2023/06/27 01:38:42;;;;;;;;;;;;;;;19.90;47.93;101450.81;5163487;28;19925;-88
2023/06/27 01:41:35;;;;;;;;;;;;;;;19.87;47.86;101450.97;5177156;28;19977;-88
2023/06/27 01:44:26;;;;;;;;;;;;;;;19.86;47.79;101451.06;5172336;28;19984;-87
2023/06/27 01:47:17;;;;;;;;;;;;;;;19.84;47.95;101445.78;5186635;28;19926;-88
2023/06/27 01:50:09;;;;;;;;;;;;;;;19.80;48.15;101445.06;5170973;28;20291;-86
2023/06/27 01:53:00;;;;;;;;;;;;;;;19.79;48.03;101439.84;5164264;28;20472;-88
2023/06/27 01:55:50;;;;;;;;;;;;;;;19.76;48.20;101432.91;5146752;28;19914;-87
2023/06/27 01:58:41;;;;;;;;;;;;;;;19.75;48.17;101436.50;5131538;28;19913;-88
2023/06/27 02:01:32;;;;;;;;;;;;;;;19.75;48.15;101433.84;5160115;28;19920;-88
2023/06/27 02:04:22;;;;;;;;;;;;;;;19.75;48.41;101439.16;5143084;28;19922;-88
2023/06/27 02:07:13;;;;;;;;;;;;;;;19.75;48.32;101439.16;5170118;28;19914;-88
2023/06/27 02:10:04;;;;;;;;;;;;;;;19.67;48.60;101436.91;5165385;28;20003;-88
2023/06/27 02:12:55;;;;;;;;;;;;;;;19.66;49.40;101443.19;5178045;28;19922;-88
2023/06/27 02:15:46;;;;;;;;;;;;;;;19.63;49.73;101438.03;5168502;28;19924;-88
2023/06/27 02:18:36;;;;;;;;;;;;;;;19.60;49.59;101434.66;5179778;28;19913;-88
2023/06/27 02:21:27;;;;;;;;;;;;;;;19.56;49.44;101433.09;5156556;28;19909;-88
2023/06/27 02:24:18;;;;;;;;;;;;;;;19.56;49.57;101430.44;5141253;28;19930;-88
2023/06/27 02:27:08;;;;;;;;;;;;;;;19.54;49.65;101432.34;5178640;28;20056;-89
2023/06/27 02:29:59;;;;;;;;;;;;;;;19.62;50.50;101433.63;5164825;28;19957;-88
2023/06/27 02:32:50;;;;;;;;;;;;;;;19.49;49.74;101427.25;5162247;28;20514;-88
2023/06/27 02:35:40;;;;;;;;;;;;;;;19.54;50.36;101430.53;5158099;28;19948;-88
2023/06/27 02:38:31;;;;;;;;;;;;;;;19.44;50.29;101423.97;5167841;28;19906;-89
2023/06/27 02:41:22;;;;;;;;;;;;;;;19.43;49.75;101425.78;5182574;28;19922;-88
2023/06/27 02:44:13;;;;;;;;;;;;;;;19.47;49.41;101414.03;5147967;28;19918;-88
2023/06/27 02:47:04;;;;;;;;;;;;;;;19.37;50.82;101423.47;5135259;28;19922;-88
2023/06/27 02:49:54;;;;;;;;;;;;;;;19.34;50.00;101423.59;5151530;28;19914;-88
2023/06/27 02:52:45;;;;;;;;;;;;;;;19.32;49.88;101423.69;5147078;28;20405;-87
2023/06/27 02:55:36;;;;;;;;;;;;;;;19.35;50.71;101422.69;5162536;28;19917;-89
2023/06/27 02:58:26;;;;;;;;;;;;;;;19.32;50.38;101421.03;5162432;28;19921;-87
2023/06/27 03:01:17;;;;;;;;;;;;;;;19.30;49.42;101422.03;5178484;28;19914;-88
2023/06/27 03:04:11;;;;;;;;;;;;;;;19.28;50.90;101430.09;5160445;28;19932;-89
2023/06/27 03:07:01;;;;;;;;;;;;;;;19.32;50.09;101434.34;5159874;28;19914;-88
2023/06/27 03:09:52;;;;;;;;;;;;;;;19.29;50.94;101431.00;5163140;28;19909;-88
2023/06/27 03:12:43;;;;;;;;;;;;;;;19.25;50.60;101413.44;5175340;28;19920;-87
2023/06/27 03:15:34;;;;;;;;;;;;;;;19.13;51.64;101426.44;5160911;28;20256;-88
2023/06/27 03:18:24;;;;;;;;;;;;;;;19.12;51.47;101421.22;5177207;28;19924;-88
2023/06/27 03:21:16;;;;;;;;;;;;;;;19.20;51.25;101421.66;5134526;28;20310;-87
2023/06/27 03:24:06;;;;;;;;;;;;;;;19.15;50.69;101419.25;5146590;28;19964;-87
2023/06/27 03:26:57;;;;;;;;;;;;;;;19.17;51.29;101427.16;5149257;28;20222;-87
2023/06/27 03:29:48;;;;;;;;;;;;;;;19.15;50.44;101432.53;5149681;28;19925;-87
2023/06/27 03:32:38;;;;;;;;;;;;;;;19.18;50.54;101440.38;5160041;28;19925;-88
2023/06/27 03:35:29;;;;;;;;;;;;;;;19.19;50.73;101436.78;5127765;28;19969;-87
2023/06/27 03:38:20;;;;;;;;;;;;;;;19.17;51.27;101428.00;5151732;28;19937;-88
2023/06/27 03:41:11;;;;;;;;;;;;;;;19.10;52.37;101425.75;5151379;28;19914;-87
2023/06/27 03:44:01;;;;;;;;;;;;;;;18.84;54.27;101434.09;5159893;28;20385;-88
2023/06/27 03:46:52;;;;;;;;;;;;;;;18.97;52.94;101430.81;5164146;28;19914;-88
2023/06/27 03:49:43;;;;;;;;;;;;;;;19.02;52.31;101444.78;5147753;28;20290;-88
2023/06/27 03:52:33;;;;;;;;;;;;;;;19.06;52.80;101438.34;5149128;28;19944;-88
2023/06/27 03:55:24;;;;;;;;;;;;;;;18.70;55.01;101439.25;5158877;28;19918;-87
2023/06/27 03:58:15;;;;;;;;;;;;;;;18.79;53.81;101432.59;5147502;28;19929;-87
2023/06/27 04:01:06;;;;;;;;;;;;;;;18.86;53.82;101440.22;5143929;28;19956;-88
2023/06/27 04:03:57;;;;;;;;;;;;;;;18.75;54.29;101445.19;5136405;28;20286;-87
2023/06/27 04:06:47;;;;;;;;;;;;;;;18.82;54.54;101433.31;5150748;28;20334;-87
2023/06/27 04:09:38;;;;;;;;;;;;;;;18.85;53.46;101435.81;5161022;28;19906;-88
2023/06/27 04:12:29;;;;;;;;;;;;;;;18.84;53.61;101436.75;5180286;28;19917;-87
2023/06/27 04:15:19;;;;;;;;;;;;;;;18.88;53.50;101435.66;5133954;28;19944;-87
2023/06/27 04:18:10;;;;;;;;;;;;;;;18.63;56.29;101441.34;5165018;28;19918;-87
2023/06/27 04:21:01;;;;;;;;;;;;;;;18.54;56.93;101434.72;5148864;28;20021;-88
2023/06/27 04:23:54;;;;;;;;;;;;;;;18.64;54.97;101440.41;5149365;28;19926;-88
2023/06/27 04:26:44;;;;;;;;;;;;;;;18.67;54.76;101434.97;5151027;28;20008;-87
2023/06/27 04:29:35;;;;;;;;;;;;;;;18.59;56.07;101433.59;5162366;28;20414;-88
2023/06/27 04:32:26;;;;;;;;;;;;;;;18.67;55.42;101444.72;5167990;28;19947;-88
2023/06/27 04:35:18;;;;;;;;;;;;;;;18.61;55.59;101437.06;5162567;28;20544;-85
2023/06/27 04:38:08;;;;;;;;;;;;;;;18.54;57.13;101429.38;5165279;28;20013;-87
2023/06/27 04:40:59;;;;;;;;;;;;;;;18.49;56.92;101428.75;5149242;28;20302;-88
2023/06/27 04:43:50;;;;;;;;;;;;;;;18.43;57.14;101430.84;5164165;28;19988;-87
2023/06/27 04:46:41;;;;;;;;;;;;;;;18.61;55.66;101437.91;5169276;28;19917;-88
2023/06/27 04:49:31;;;;;;;;;;;;;;;18.62;55.63;101442.28;5172036;28;19912;-88
2023/06/27 04:52:22;;;;;;;;;;;;;;;18.70;55.95;101440.09;5158403;28;19980;-88
2023/06/27 04:55:13;;;;;;;;;;;;;;;18.30;58.24;101442.06;5166981;28;20175;-87
2023/06/27 04:58:04;;;;;;;;;;;;;;;18.36;57.49;101443.56;5146545;28;19914;-86
2023/06/27 05:00:55;;;;;;;;;;;;;;;18.55;55.35;101439.06;5147672;28;19917;-88
2023/06/27 05:03:46;;;;;;;;;;;;;;;18.61;55.33;101442.38;5148019;28;19922;-88
2023/06/27 05:06:36;;;;;;;;;;;;;;;18.63;55.37;101443.16;5178662;28;19914;-87
2023/06/27 05:09:27;;;;;;;;;;;;;;;18.62;55.67;101436.97;5136320;28;20283;-86
2023/06/27 05:12:18;;;;;;;;;;;;;;;18.63;55.58;101440.50;5140222;28;20012;-87
2023/06/27 05:15:09;;;;;;;;;;;;;;;18.60;56.29;101444.16;5153865;28;20371;-87
2023/06/27 05:18:05;;;;;;;;;;;;;;;18.65;55.74;101441.25;5158715;28;19922;-86
2023/06/27 05:20:56;;;;;;;;;;;;;;;18.51;56.55;101445.47;5148125;28;20434;-87
2023/06/27 05:23:47;;;;;;;;;;;;;;;18.64;55.44;101439.53;5151129;28;19922;-86
2023/06/27 05:26:37;;;;;;;;;;;;;;;18.52;57.29;101449.84;5170982;28;19939;-87
2023/06/27 05:29:28;;;;;;;;;;;;;;;18.50;57.43;101454.38;5180855;28;19920;-87
2023/06/27 05:32:19;;;;;;;;;;;;;;;18.63;56.09;101453.78;5193266;28;19941;-88
2023/06/27 05:35:09;;;;;;;;;;;;;;;18.48;58.04;101461.56;5169655;28;20001;-87
2023/06/27 05:38:00;;;;;;;;;;;;;;;18.36;59.12;101451.53;5151781;28;19922;-87
2023/06/27 05:40:51;;;;;;;;;;;;;;;18.28;58.94;101445.72;5157812;28;19922;-87
2023/06/27 05:43:41;;;;;;;;;;;;;;;18.30;58.77;101451.84;5158285;28;19905;-87
2023/06/27 05:46:38;;;;;;;;;;;;;;;18.32;58.84;101455.25;5163826;28;19913;-87
2023/06/27 05:49:29;;;;;;;;;;;;;;;18.28;59.49;101451.91;5131904;28;20008;-87
2023/06/27 05:52:20;;;;;;;;;;;;;;;18.19;60.10;101447.91;5140954;28;19918;-87
2023/06/27 05:55:10;;;;;;;;;;;;;;;18.36;58.83;101441.75;5154174;28;20398;-88
2023/06/27 05:58:01;;;;;;;;;;;;;;;18.24;59.83;101439.72;5149731;28;19961;-88
2023/06/27 06:00:54;;;;;;;;;;;;;;;18.05;60.65;101450.34;5171603;28;19914;-87
2023/06/27 06:03:45;;;;;;;;;;;;;;;18.02;61.30;101447.84;5160191;28;19951;-88
2023/06/27 06:06:38;;;;;;;;;;;;;;;18.00;61.35;101444.38;5145024;28;19925;-87
2023/06/27 06:09:29;;;;;;;;;;;;;;;18.04;60.37;101445.97;5158569;28;20390;-87
2023/06/27 06:12:20;;;;;;;;;;;;;;;18.07;60.60;101437.84;5164273;28;19913;-87
2023/06/27 06:15:10;;;;;;;;;;;;;;;18.05;61.69;101439.72;5148770;28;20013;-89
2023/06/27 06:18:01;;;;;;;;;;;;;;;17.89;62.48;101442.19;5160029;28;20434;-88
2023/06/27 06:20:52;;;;;;;;;;;;;;;18.18;60.90;101440.00;5158795;28;19920;-87
2023/06/27 06:23:42;;;;;;;;;;;;;;;18.07;62.08;101440.50;5164223;28;19960;-88
2023/06/27 06:26:35;;;;;;;;;;;;;;;18.18;61.36;101432.88;5161940;28;19945;-87
2023/06/27 06:29:25;;;;;;;;;;;;;;;18.32;60.21;101428.69;5132185;28;19944;-88
2023/06/27 06:32:16;;;;;;;;;;;;;;;18.32;61.48;101428.69;5161002;28;19917;-87
2023/06/27 06:35:07;;;;;;;;;;;;;;;18.32;61.09;101434.00;5145889;28;20420;-88
2023/06/27 06:37:57;;;;;;;;;;;;;;;18.42;61.62;101429.97;5144614;28;19968;-88
2023/06/27 06:40:48;;;;;;;;;;;;;;;18.53;61.30;101438.28;5145550;28;19953;-88
2023/06/27 06:43:39;;;;;;;;;;;;;;;18.51;61.93;101439.31;5148274;28;20446;-88
2023/06/27 06:46:30;;;;;;;;;;;;;;;18.33;62.89;101433.97;5161849;28;19914;-88
2023/06/27 06:49:20;;;;;;;;;;;;;;;18.37;62.38;101437.31;5149573;28;19921;-88
2023/06/27 06:52:11;;;;;;;;;;;;;;;18.53;61.33;101432.97;5159860;28;19924;-86
2023/06/27 06:55:02;;;;;;;;;;;;;;;18.40;62.68;101431.84;5182482;28;19910;-89
2023/06/27 06:57:52;;;;;;;;;;;;;;;18.53;61.89;101440.06;5157788;28;19922;-88
2023/06/27 07:00:43;;;;;;;;;;;;;;;18.59;61.68;101441.56;5148127;28;19910;-88
2023/06/27 07:03:34;;;;;;;;;;;;;;;18.70;61.45;101436.59;5171079;28;19913;-89
2023/06/27 07:06:25;;;;;;;;;;;;;;;18.85;60.08;101441.13;5187858;28;20275;-88
2023/06/27 07:09:15;;;;;;;;;;;;;;;18.79;61.73;101438.81;5152033;28;19921;-87
2023/06/27 07:12:06;;;;;;;;;;;;;;;18.80;61.41;101444.97;5164588;28;19968;-88
2023/06/27 07:14:57;;;;;;;;;;;;;;;18.90;61.11;101445.34;5160651;28;19917;-88
2023/06/27 07:17:47;;;;;;;;;;;;;;;18.91;61.43;101442.63;5148379;28;19940;-88
2023/06/27 07:20:38;;;;;;;;;;;;;;;18.93;61.81;101446.09;5160618;28;20890;-88
2023/06/27 07:23:29;;;;;;;;;;;;;;;19.00;61.30;101447.53;5158683;28;19920;-88
2023/06/27 07:26:20;;;;;;;;;;;;;;;19.15;60.49;101443.19;5148351;28;19913;-88
2023/06/27 07:29:10;;;;;;;;;;;;;;;18.99;61.53;101451.13;5155781;28;20342;-88
2023/06/27 07:32:01;;;;;;;;;;;;;;;19.04;61.61;101448.22;5173759;28;19918;-88
2023/06/27 07:34:52;;;;;;;;;;;;;;;19.16;60.72;101442.25;5145125;28;20170;-86
2023/06/27 07:37:42;;;;;;;;;;;;;;;19.04;61.73;101437.59;5148311;28;20427;-87
2023/06/27 07:40:33;;;;;;;;;;;;;;;19.08;61.30;101444.44;5176139;28;20025;-87
2023/06/27 07:43:24;;;;;;;;;;;;;;;19.28;59.99;101434.59;5147824;28;19981;-88
2023/06/27 07:46:15;;;;;;;;;;;;;;;19.20;61.44;101442.94;5151122;28;19920;-86
2023/06/27 07:49:05;;;;;;;;;;;;;;;19.30;61.18;101440.66;5146512;28;20004;-88
2023/06/27 07:51:56;;;;;;;;;;;;;;;19.33;60.73;101437.84;5164502;28;19917;-87
2023/06/27 07:54:47;;;;;;;;;;;;;;;19.38;60.72;101448.25;5163410;28;19929;-88
2023/06/27 07:57:38;;;;;;;;;;;;;;;19.42;60.35;101442.69;5178633;28;20354;-88
2023/06/27 08:00:29;;;;;;;;;;;;;;;19.31;60.93;101439.72;5135144;28;19913;-86
2023/06/27 08:03:19;;;;;;;;;;;;;;;19.41;60.33;101426.81;5154942;28;19917;-87
2023/06/27 08:06:10;;;;;;;;;;;;;;;19.49;59.87;101425.44;5169802;28;19913;-87
2023/06/27 08:09:02;;;;;;;;;;;;;;;19.63;60.34;101423.84;5151671;28;19913;-87
2023/06/27 08:11:54;;;;;;;;;;;;;;;19.63;59.65;101434.47;5162258;28;19909;-87
2023/06/27 08:14:47;;;;;;;;;;;;;;;19.63;58.98;101429.16;5148173;28;19921;-88
2023/06/27 08:17:38;;;;;;;;;;;;;;;19.75;58.22;101439.16;5162135;28;20433;-89
2023/06/27 08:20:28;;;;;;;;;;;;;;;19.79;58.57;101423.88;5158204;28;19909;-88
2023/06/27 08:23:19;;;;;;;;;;;;;;;19.89;58.21;101416.25;5165490;28;20263;-88
2023/06/27 08:26:16;;;;;;;;;;;;;;;19.91;58.42;101422.38;5153919;28;19917;-88
2023/06/27 08:29:07;;;;;;;;;;;;;;;20.01;57.59;101418.25;5178845;28;19910;-88
2023/06/27 08:31:59;;;;;;;;;;;;;;;20.07;57.36;101423.22;5149472;28;19929;-87
2023/06/27 08:34:50;;;;;;;;;;;;;;;20.08;57.42;101422.28;5167364;28;19925;-88
2023/06/27 08:37:43;;;;;;;;;;;;;;;20.16;56.57;101426.31;5152653;28;20005;-87
2023/06/27 08:40:35;;;;;;;;;;;;;;;20.25;55.70;101421.31;5176104;28;19925;-88
2023/06/27 08:43:26;;;;;;;;;;;;;;;20.29;56.05;101422.00;5177444;28;19925;-88
2023/06/27 08:46:19;;;;;;;;;;;;;;;20.37;55.92;101411.75;5188425;28;19929;-88
2023/06/27 08:49:12;;;;;;;;;;;;;;;20.47;55.48;101409.44;5173784;28;19912;-87
2023/06/27 08:52:04;;;;;;;;;;;;;;;20.51;55.16;101410.97;5188472;28;19937;-89
2023/06/27 08:54:55;;;;;;;;;;;;;;;20.50;54.73;101408.41;5172693;28;19909;-87
2023/06/27 08:57:46;;;;;;;;;;;;;;;20.52;54.87;101403.84;5174069;28;20286;-88
2023/06/27 09:00:37;;;;;;;;;;;;;;;20.62;54.40;101406.81;5167973;28;19941;-88
2023/06/27 09:03:28;;;;;;;;;;;;;;;20.54;53.58;101404.59;5177991;28;19913;-88
2023/06/27 09:06:19;;;;;;;;;;;;;;;20.55;54.00;101404.53;5148211;28;19918;-88
2023/06/27 09:09:11;;;;;;;;;;;;;;;20.69;54.09;101405.50;5131626;28;19913;-88
2023/06/27 09:12:02;;;;;;;;;;;;;;;20.78;53.70;101402.34;5166100;28;19922;-88
2023/06/27 09:14:53;;;;;;;;;;;;;;;20.86;53.27;101410.75;5179064;28;19949;-87
2023/06/27 09:17:43;;;;;;;;;;;;;;;20.95;52.73;101408.47;5161476;28;19921;-88
2023/06/27 09:20:34;;;;;;;;;;;;;;;21.03;52.86;101409.72;5143667;28;19914;-89
2023/06/27 09:23:27;;;;;;;;;;;;;;;21.05;52.68;101409.63;5168533;28;20082;-88
2023/06/27 09:26:17;;;;;;;;;;;;;;;21.03;53.25;101404.38;5162953;28;19917;-88
2023/06/27 09:29:08;;;;;;;;;;;;;;;20.90;53.01;101398.06;5160332;28;19944;-88
2023/06/27 09:32:08;;;;;;;;;;;;;;;21.15;53.24;101405.47;5161141;28;20008;-87
2023/06/27 09:35:03;;;;;;;;;;;;;;;21.28;52.24;101405.53;5158129;28;19913;-88
2023/06/27 09:38:03;;;;;;;;;;;;;;;21.23;52.06;101402.31;5172604;28;21258;-88
2023/06/27 09:41:00;;;;;;;;;;;;;;;21.18;51.71;101405.25;5149512;28;20000;-87
2023/06/27 09:43:51;;;;;;;;;;;;;;;21.37;51.23;101399.63;5162691;28;20008;-88
2023/06/27 09:46:45;;;;;;;;;;;;;;;21.27;51.72;101406.53;5150388;28;20375;-88
2023/06/27 09:49:38;;;;;;;;;;;;;;;21.46;51.30;101405.38;5159659;28;19909;-88
2023/06/27 09:52:29;;;;;;;;;;;;;;;21.32;51.01;101409.75;5162231;28;19918;-88
2023/06/27 09:55:20;;;;;;;;;;;;;;;21.50;50.67;101415.75;5166562;28;20333;-87
2023/06/27 09:58:11;;;;;;;;;;;;;;;21.56;49.20;101414.53;5137808;28;19914;-88
2023/06/27 10:01:05;;;;;;;;;;;;;;;21.55;49.47;101407.47;5168411;28;19917;-88
2023/06/27 10:03:56;;;;;;;;;;;;;;;21.64;49.60;101412.25;5184764;28;19997;-88
2023/06/27 10:06:47;;;;;;;;;;;;;;;21.75;48.18;101408.06;5147682;28;19964;-88
2023/06/27 10:09:37;;;;;;;;;;;;;;;21.80;48.69;101401.47;5196251;28;19901;-88
2023/06/27 10:12:29;;;;;;;;;;;;;;;21.69;48.22;101410.16;5167323;28;19921;-89
2023/06/27 10:15:19;;;;;;;;;;;;;;;21.93;48.14;101408.69;5198219;28;19922;-88
2023/06/27 10:18:11;;;;;;;;;;;;;;;21.87;47.86;101407.25;5193504;28;19914;-87
2023/06/27 10:21:01;;;;;;;;;;;;;;;21.89;48.61;101407.19;5176941;28;19913;-88
2023/06/27 10:23:53;;;;;;;;;;;;;;;21.79;45.64;101410.44;5139939;28;19925;-88
2023/06/27 10:26:53;;;;;;;;;;;;;;;21.91;46.93;101398.09;5179059;28;19920;-88
2023/06/27 10:29:44;;;;;;;;;;;;;;;22.07;47.15;101402.47;5191507;28;19929;-88
2023/06/27 10:32:45;;;;;;;;;;;;;;;22.13;46.96;101404.72;5144461;28;19985;-88
2023/06/27 10:35:39;;;;;;;;;;;;;;;22.25;46.35;101411.94;5163981;28;19913;-89
2023/06/27 10:38:37;;;;;;;;;;;;;;;22.30;45.64;101409.81;5163504;28;20439;-89
2023/06/27 10:41:33;;;;;;;;;;;;;;;22.29;45.29;101397.41;5162434;28;19960;-87
2023/06/27 10:44:24;;;;;;;;;;;;;;;22.22;44.67;101401.44;5161403;28;19926;-88
2023/06/27 10:47:15;;;;;;;;;;;;;;;22.36;46.11;101410.38;5149358;28;19963;-88
2023/06/27 10:50:19;;;;;;;;;;;;;;;22.32;46.50;101412.38;5148033;28;20670;-88
2023/06/27 10:53:15;;;;;;;;;;;;;;;22.50;46.08;101406.81;5148590;28;20015;-88
2023/06/27 10:56:16;;;;;;;;;;;;;;;22.58;46.03;101404.47;5162935;28;19922;-88
2023/06/27 10:59:14;;;;;;;;;;;;;;;22.72;45.80;101395.53;5168647;28;19941;-87
2023/06/27 11:02:07;;;;;;;;;;;;;;;22.62;44.64;101393.47;5170147;28;19918;-88
2023/06/27 11:04:58;;;;;;;;;;;;;;;22.78;43.58;101398.66;5173919;28;19954;-88
2023/06/27 11:07:52;;;;;;;;;;;;;;;22.73;42.55;101398.09;5169426;28;19914;-87
2023/06/27 11:10:49;;;;;;;;;;;;;;;22.84;42.70;101392.03;5169739;28;19913;-88
2023/06/27 11:13:44;;;;;;;;;;;;;;;22.86;43.12;101390.09;5151453;28;19968;-88
2023/06/27 11:16:35;;;;;;;;;;;;;;;22.95;41.88;101389.44;5129385;28;20506;-89
2023/06/27 11:19:26;;;;;;;;;;;;;;;23.09;43.29;101384.97;5142689;28;19940;-88
2023/06/27 11:22:17;;;;;;;;;;;;;;;23.24;42.99;101388.41;5163955;28;19921;-87
2023/06/27 11:25:14;;;;;;;;;;;;;;;23.31;41.91;101388.84;5160656;28;20128;-88
2023/06/27 11:28:05;;;;;;;;;;;;;;;23.20;40.80;101387.78;5177835;28;20437;-88
2023/06/27 11:31:00;;;;;;;;;;;;;;;23.34;41.20;101392.16;5161885;28;19921;-88
2023/06/27 11:33:55;;;;;;;;;;;;;;;23.53;41.55;101389.03;5159693;28;19977;-88
2023/06/27 11:36:46;;;;;;;;;;;;;;;23.44;41.46;101381.66;5165087;28;19914;-88
2023/06/27 11:39:36;;;;;;;;;;;;;;;23.39;41.22;101381.97;5150742;28;19941;-89
2023/06/27 11:42:31;;;;;;;;;;;;;;;23.34;40.69;101383.28;5147968;28;19921;-88
2023/06/27 11:45:23;;;;;;;;;;;;;;;23.45;41.51;101377.16;5165820;28;19926;-88
2023/06/27 11:48:13;;;;;;;;;;;;;;;23.53;41.07;101372.97;5149491;28;19913;-87
2023/06/27 11:51:06;;;;;;;;;;;;;;;23.35;40.96;101372.47;5156013;28;19948;-87
2023/06/27 11:53:56;;;;;;;;;;;;;;;23.53;41.91;101369.44;5153196;28;19956;-88
2023/06/27 11:56:47;;;;;;;;;;;;;;;23.48;40.94;101368.88;5165030;28;19917;-88
2023/06/27 11:59:38;;;;;;;;;;;;;;;23.62;41.29;101370.59;5164937;28;19914;-88
2023/06/27 12:02:29;;;;;;;;;;;;;;;23.73;39.54;101365.31;5155752;28;19917;-87
2023/06/27 12:05:20;;;;;;;;;;;;;;;23.74;40.71;101364.34;5153149;28;19956;-88
2023/06/27 12:08:11;;;;;;;;;;;;;;;23.65;40.15;101367.69;5167377;28;20587;-88
2023/06/27 12:11:03;;;;;;;;;;;;;;;23.84;39.98;101353.81;5165283;28;19957;-88
2023/06/27 12:13:53;;;;;;;;;;;;;;;23.76;38.59;101359.72;5155782;28;19918;-87
2023/06/27 12:16:44;;;;;;;;;;;;;;;23.72;39.82;101360.91;5156354;28;19914;-87
2023/06/27 12:19:35;;;;;;;;;;;;;;;23.92;40.17;101355.94;5162303;28;19909;-90
2023/06/27 12:22:25;;;;;;;;;;;;;;;23.99;39.96;101360.75;5152424;28;19926;-88
2023/06/27 12:25:16;;;;;;;;;;;;;;;23.92;40.25;101359.44;5161434;28;20012;-87
2023/06/27 12:28:07;;;;;;;;;;;;;;;23.72;40.27;101366.28;5148567;28;19918;-88
2023/06/27 12:30:58;;;;;;;;;;;;;;;23.98;40.51;101360.88;5161680;28;19913;-90
2023/06/27 12:33:50;;;;;;;;;;;;;;;24.01;40.61;101355.25;5163335;28;20302;-89
2023/06/27 12:36:41;;;;;;;;;;;;;;;23.96;40.47;101362.78;5150489;28;19960;-90
2023/06/27 12:39:33;;;;;;;;;;;;;;;24.15;40.45;101359.59;5183898;28;19910;-89
2023/06/27 12:42:23;;;;;;;;;;;;;;;23.92;39.92;101363.97;5158816;28;19922;-89
2023/06/27 12:45:14;;;;;;;;;;;;;;;24.08;39.89;101361.91;5163608;28;20164;-88
2023/06/27 12:48:05;;;;;;;;;;;;;;;23.89;40.16;101357.00;5149635;28;19913;-89
2023/06/27 12:50:56;;;;;;;;;;;;;;;24.00;39.21;101362.47;5177986;28;20033;-89
2023/06/27 12:53:47;;;;;;;;;;;;;;;24.17;39.00;101355.81;5180802;28;19960;-88
2023/06/27 12:56:37;;;;;;;;;;;;;;;24.41;39.64;101354.97;5136915;28;19914;-90
2023/06/27 12:59:29;;;;;;;;;;;;;;;24.24;37.94;101348.19;5168428;28;19957;-91
2023/06/27 13:02:20;;;;;;;;;;;;;;;24.64;37.44;101353.19;5164724;28;19921;-88
2023/06/27 13:05:11;;;;;;;;;;;;;;;24.75;37.84;101343.50;5160954;28;20038;-88
2023/06/27 13:08:01;;;;;;;;;;;;;;;24.79;37.45;101345.81;5162458;28;19952;-90
2023/06/27 13:10:52;;;;;;;;;;;;;;;24.97;37.30;101346.19;5147711;28;19997;-88
2023/06/27 13:13:43;;;;;;;;;;;;;;;24.94;37.69;101337.53;5149738;28;20576;-89
2023/06/27 13:16:34;;;;;;;;;;;;;;;24.75;37.60;101338.13;5163494;28;19914;-89
2023/06/27 13:19:25;;;;;;;;;;;;;;;24.19;38.08;101328.91;5147666;28;19905;-90
2023/06/27 13:22:15;;;;;;;;;;;;;;;24.40;37.61;101323.75;5150428;28;19987;-88
2023/06/27 13:25:06;;;;;;;;;;;;;;;24.72;39.01;101322.25;5162340;28;19944;-89
2023/06/27 13:28:00;;;;;;;;;;;;;;;24.82;38.92;101326.81;5162783;28;19925;-90
2023/06/27 13:30:51;;;;;;;;;;;;;;;24.80;38.93;101322.50;5170813;28;19909;-90
2023/06/27 13:33:41;;;;;;;;;;;;;;;24.87;38.73;101320.22;5150507;28;19940;-90
2023/06/27 13:36:32;;;;;;;;;;;;;;;24.96;38.63;101316.81;5136771;28;19922;-89
2023/06/27 13:39:23;;;;;;;;;;;;;;;24.85;38.47;101322.16;5162527;28;19921;-89
2023/06/27 13:42:13;;;;;;;;;;;;;;;24.93;38.59;101314.34;5159188;28;20138;-89
2023/06/27 13:45:04;;;;;;;;;;;;;;;25.05;38.18;101310.72;5132983;28;19921;-89
2023/06/27 13:47:55;;;;;;;;;;;;;;;25.03;37.61;101306.44;5147808;28;20028;-88
2023/06/27 13:50:48;;;;;;;;;;;;;;;25.04;36.60;101309.00;5150277;28;19913;-89
2023/06/27 13:53:38;;;;;;;;;;;;;;;25.31;37.54;101302.41;5161864;28;19969;-89
2023/06/27 13:56:29;;;;;;;;;;;;;;;25.11;37.15;101302.16;5150690;28;20404;-88
2023/06/27 13:59:20;;;;;;;;;;;;;;;25.33;37.12;101305.78;5163313;28;19960;-88
2023/06/27 14:02:29;;;;;;;2.90;1.38;;;;;;;25.61;36.96;101300.91;5145991;27;20489;-78
2023/06/27 14:05:20;;;;;;;0.32;0.32;;;;;;;25.57;36.88;101288.72;5127762;28;20074;-78
2023/06/27 14:08:11;;;;;;;0.28;0.28;;;;;;;25.73;36.58;101291.84;5133868;28;20089;-78
2023/06/27 14:11:02;;;;;;;0.45;0.45;;;;;;;25.88;36.29;101288.88;5127135;28;20039;-77
2023/06/27 14:13:53;;;;;;;0.65;0.65;;;;;;;26.00;36.13;101281.59;5127511;28;20121;-77
2023/06/27 14:16:44;;;;;;;0.45;0.45;;;;;;;26.08;35.98;101288.06;5121765;28;20035;-78
2023/06/27 14:19:35;;;;;;;0.52;0.52;;;;;;;26.22;34.50;101276.13;5122109;28;20285;-78
2023/06/27 14:22:26;;;;;;;0.20;0.20;;;;;;;26.26;33.22;101278.56;5124169;28;20049;-77
2023/06/27 14:25:16;;;;;;;0.20;0.20;;;;;;;26.32;33.14;101284.28;5122709;28;20074;-78
2023/06/27 14:28:07;;;;;;;0.20;0.20;;;;;;;26.27;34.08;101289.19;5128417;28;20082;-78
2023/06/27 14:30:59;;;;;;;0.20;0.20;;;;;;;26.29;33.84;101284.56;5128086;28;20030;-77
2023/06/27 14:33:50;;;;;;;0.20;0.20;;;;;;;25.68;33.01;101283.28;5122682;28;20035;-78
2023/06/27 14:36:41;;;;;;;0.20;0.20;;;;;;;25.62;32.60;101283.81;5124069;28;20240;-78